sensor_id;sensor_type;location;lat;lon;timestamp;P1;durP1;ratioP1;P2;durP2;ratioP2
13981;SDS011;7065;50.880;5.502;2023-08-21T00:01:36;3.45;;;2.45;;
13981;SDS011;7065;50.880;5.502;2023-08-21T00:04:02;5.32;;;2.50;;
13981;SDS011;7065;50.880;5.502;2023-08-21T00:06:28;6.43;;;2.85;;
13981;SDS011;7065;50.880;5.502;2023-08-21T00:08:54;5.45;;;2.60;;
13981;SDS011;7065;50.880;5.502;2023-08-21T00:11:20;5.60;;;2.42;;
13981;SDS011;7065;50.880;5.502;2023-08-21T00:13:46;3.25;;;2.15;;
13981;SDS011;7065;50.880;5.502;2023-08-21T00:16:14;6.68;;;2.50;;
13981;SDS011;7065;50.880;5.502;2023-08-21T00:18:41;5.40;;;2.55;;
13981;SDS011;7065;50.880;5.502;2023-08-21T00:21:06;5.03;;;2.30;;
13981;SDS011;7065;50.880;5.502;2023-08-21T00:23:32;4.03;;;2.35;;
13981;SDS011;7065;50.880;5.502;2023-08-21T00:25:58;6.93;;;2.55;;
13981;SDS011;7065;50.880;5.502;2023-08-21T00:28:24;6.95;;;2.83;;
13981;SDS011;7065;50.880;5.502;2023-08-21T00:30:49;5.13;;;2.67;;
13981;SDS011;7065;50.880;5.502;2023-08-21T00:33:15;7.60;;;2.95;;
13981;SDS011;7065;50.880;5.502;2023-08-21T00:35:41;3.15;;;2.58;;
13981;SDS011;7065;50.880;5.502;2023-08-21T00:38:08;5.00;;;2.97;;
13981;SDS011;7065;50.880;5.502;2023-08-21T00:40:33;5.20;;;2.55;;
13981;SDS011;7065;50.880;5.502;2023-08-21T00:43:00;6.38;;;3.03;;
13981;SDS011;7065;50.880;5.502;2023-08-21T00:45:26;4.95;;;2.30;;
13981;SDS011;7065;50.880;5.502;2023-08-21T00:47:52;6.90;;;2.40;;
13981;SDS011;7065;50.880;5.502;2023-08-21T00:50:18;6.18;;;2.70;;
13981;SDS011;7065;50.880;5.502;2023-08-21T00:52:45;5.25;;;2.45;;
13981;SDS011;7065;50.880;5.502;2023-08-21T00:55:12;6.10;;;2.60;;
13981;SDS011;7065;50.880;5.502;2023-08-21T00:57:39;3.88;;;2.65;;
13981;SDS011;7065;50.880;5.502;2023-08-21T01:00:05;5.93;;;2.67;;
13981;SDS011;7065;50.880;5.502;2023-08-21T01:02:35;5.38;;;2.40;;
13981;SDS011;7065;50.880;5.502;2023-08-21T01:05:01;5.32;;;2.45;;
13981;SDS011;7065;50.880;5.502;2023-08-21T01:07:26;5.95;;;2.58;;
13981;SDS011;7065;50.880;5.502;2023-08-21T01:09:59;6.50;;;2.88;;
13981;SDS011;7065;50.880;5.502;2023-08-21T01:12:35;5.05;;;2.58;;
13981;SDS011;7065;50.880;5.502;2023-08-21T01:15:11;7.13;;;2.75;;
13981;SDS011;7065;50.880;5.502;2023-08-21T01:17:38;4.82;;;2.40;;
13981;SDS011;7065;50.880;5.502;2023-08-21T01:20:06;5.60;;;2.65;;
13981;SDS011;7065;50.880;5.502;2023-08-21T01:22:36;4.43;;;2.47;;
13981;SDS011;7065;50.880;5.502;2023-08-21T01:25:04;3.47;;;1.90;;
13981;SDS011;7065;50.880;5.502;2023-08-21T01:27:31;3.67;;;2.00;;
13981;SDS011;7065;50.880;5.502;2023-08-21T01:29:58;4.47;;;2.42;;
13981;SDS011;7065;50.880;5.502;2023-08-21T01:34:50;6.20;;;2.55;;
13981;SDS011;7065;50.880;5.502;2023-08-21T01:37:20;4.97;;;2.35;;
13981;SDS011;7065;50.880;5.502;2023-08-21T01:39:47;3.75;;;2.40;;
13981;SDS011;7065;50.880;5.502;2023-08-21T01:42:12;3.67;;;2.70;;
13981;SDS011;7065;50.880;5.502;2023-08-21T01:44:38;6.43;;;2.60;;
13981;SDS011;7065;50.880;5.502;2023-08-21T01:47:04;3.25;;;2.30;;
13981;SDS011;7065;50.880;5.502;2023-08-21T01:49:30;3.53;;;2.05;;
13981;SDS011;7065;50.880;5.502;2023-08-21T01:51:55;4.35;;;3.17;;
13981;SDS011;7065;50.880;5.502;2023-08-21T01:54:21;3.42;;;2.28;;
13981;SDS011;7065;50.880;5.502;2023-08-21T01:56:47;6.68;;;2.55;;
13981;SDS011;7065;50.880;5.502;2023-08-21T01:59:12;6.22;;;2.55;;
13981;SDS011;7065;50.880;5.502;2023-08-21T02:01:38;2.92;;;2.35;;
13981;SDS011;7065;50.880;5.502;2023-08-21T02:04:04;5.18;;;2.88;;
13981;SDS011;7065;50.880;5.502;2023-08-21T02:06:30;3.92;;;2.33;;
13981;SDS011;7065;50.880;5.502;2023-08-21T02:08:55;3.90;;;2.20;;
13981;SDS011;7065;50.880;5.502;2023-08-21T02:11:21;3.75;;;2.75;;
13981;SDS011;7065;50.880;5.502;2023-08-21T02:13:47;6.25;;;2.63;;
13981;SDS011;7065;50.880;5.502;2023-08-21T02:16:13;4.88;;;2.25;;
13981;SDS011;7065;50.880;5.502;2023-08-21T02:18:39;4.30;;;2.55;;
13981;SDS011;7065;50.880;5.502;2023-08-21T02:21:04;5.53;;;2.33;;
13981;SDS011;7065;50.880;5.502;2023-08-21T02:23:30;4.95;;;2.40;;
13981;SDS011;7065;50.880;5.502;2023-08-21T02:25:56;5.55;;;2.50;;
13981;SDS011;7065;50.880;5.502;2023-08-21T02:28:21;3.70;;;2.42;;
13981;SDS011;7065;50.880;5.502;2023-08-21T02:30:50;5.22;;;2.20;;
13981;SDS011;7065;50.880;5.502;2023-08-21T02:33:16;3.53;;;2.20;;
13981;SDS011;7065;50.880;5.502;2023-08-21T02:35:41;3.70;;;2.08;;
13981;SDS011;7065;50.880;5.502;2023-08-21T02:38:07;5.97;;;2.30;;
13981;SDS011;7065;50.880;5.502;2023-08-21T02:40:33;4.00;;;2.70;;
13981;SDS011;7065;50.880;5.502;2023-08-21T02:42:59;4.85;;;2.50;;
13981;SDS011;7065;50.880;5.502;2023-08-21T02:45:25;6.22;;;2.80;;
13981;SDS011;7065;50.880;5.502;2023-08-21T02:47:50;3.90;;;2.38;;
13981;SDS011;7065;50.880;5.502;2023-08-21T02:50:16;3.65;;;2.42;;
13981;SDS011;7065;50.880;5.502;2023-08-21T02:52:42;4.00;;;2.60;;
13981;SDS011;7065;50.880;5.502;2023-08-21T02:55:07;5.40;;;2.70;;
13981;SDS011;7065;50.880;5.502;2023-08-21T02:57:33;3.72;;;2.63;;
13981;SDS011;7065;50.880;5.502;2023-08-21T02:59:59;5.55;;;2.42;;
13981;SDS011;7065;50.880;5.502;2023-08-21T03:02:25;3.35;;;2.60;;
13981;SDS011;7065;50.880;5.502;2023-08-21T03:04:50;9.85;;;2.90;;
13981;SDS011;7065;50.880;5.502;2023-08-21T03:07:16;7.38;;;2.58;;
13981;SDS011;7065;50.880;5.502;2023-08-21T03:09:44;4.95;;;2.72;;
13981;SDS011;7065;50.880;5.502;2023-08-21T03:12:12;5.28;;;2.95;;
13981;SDS011;7065;50.880;5.502;2023-08-21T03:14:37;6.95;;;2.97;;
13981;SDS011;7065;50.880;5.502;2023-08-21T03:17:03;3.67;;;3.10;;
13981;SDS011;7065;50.880;5.502;2023-08-21T03:19:29;4.70;;;2.97;;
13981;SDS011;7065;50.880;5.502;2023-08-21T03:21:55;7.60;;;3.42;;
13981;SDS011;7065;50.880;5.502;2023-08-21T03:24:21;4.05;;;3.05;;
13981;SDS011;7065;50.880;5.502;2023-08-21T03:26:47;7.32;;;3.22;;
13981;SDS011;7065;50.880;5.502;2023-08-21T03:29:13;3.83;;;2.90;;
13981;SDS011;7065;50.880;5.502;2023-08-21T03:31:38;5.72;;;2.72;;
13981;SDS011;7065;50.880;5.502;2023-08-21T03:34:04;3.42;;;2.60;;
13981;SDS011;7065;50.880;5.502;2023-08-21T03:36:30;4.53;;;2.80;;
13981;SDS011;7065;50.880;5.502;2023-08-21T03:39:02;4.65;;;2.95;;
13981;SDS011;7065;50.880;5.502;2023-08-21T03:41:31;5.03;;;2.85;;
13981;SDS011;7065;50.880;5.502;2023-08-21T03:43:57;6.88;;;3.55;;
13981;SDS011;7065;50.880;5.502;2023-08-21T03:46:23;10.43;;;3.60;;
13981;SDS011;7065;50.880;5.502;2023-08-21T03:48:49;5.05;;;3.53;;
13981;SDS011;7065;50.880;5.502;2023-08-21T03:51:15;6.20;;;3.45;;
13981;SDS011;7065;50.880;5.502;2023-08-21T03:53:41;7.93;;;3.35;;
13981;SDS011;7065;50.880;5.502;2023-08-21T03:56:07;3.72;;;3.10;;
13981;SDS011;7065;50.880;5.502;2023-08-21T03:58:32;3.92;;;2.55;;
13981;SDS011;7065;50.880;5.502;2023-08-21T04:00:58;2.70;;;2.40;;
13981;SDS011;7065;50.880;5.502;2023-08-21T04:03:24;4.70;;;2.33;;
13981;SDS011;7065;50.880;5.502;2023-08-21T04:05:52;3.10;;;2.78;;
13981;SDS011;7065;50.880;5.502;2023-08-21T04:08:18;3.80;;;2.67;;
13981;SDS011;7065;50.880;5.502;2023-08-21T04:10:44;3.85;;;2.90;;
13981;SDS011;7065;50.880;5.502;2023-08-21T04:13:09;3.72;;;2.40;;
13981;SDS011;7065;50.880;5.502;2023-08-21T04:15:35;3.72;;;2.88;;
13981;SDS011;7065;50.880;5.502;2023-08-21T04:18:01;4.30;;;2.90;;
13981;SDS011;7065;50.880;5.502;2023-08-21T04:20:27;4.40;;;3.05;;
13981;SDS011;7065;50.880;5.502;2023-08-21T04:22:52;4.57;;;2.92;;
13981;SDS011;7065;50.880;5.502;2023-08-21T04:25:18;5.80;;;3.10;;
13981;SDS011;7065;50.880;5.502;2023-08-21T04:27:43;6.80;;;3.55;;
13981;SDS011;7065;50.880;5.502;2023-08-21T04:30:10;5.57;;;3.05;;
13981;SDS011;7065;50.880;5.502;2023-08-21T04:32:36;6.75;;;3.22;;
13981;SDS011;7065;50.880;5.502;2023-08-21T04:35:02;6.97;;;2.80;;
13981;SDS011;7065;50.880;5.502;2023-08-21T04:37:27;4.25;;;3.25;;
13981;SDS011;7065;50.880;5.502;2023-08-21T04:39:53;4.75;;;2.90;;
13981;SDS011;7065;50.880;5.502;2023-08-21T04:42:19;3.78;;;3.35;;
13981;SDS011;7065;50.880;5.502;2023-08-21T04:44:46;5.10;;;3.20;;
13981;SDS011;7065;50.880;5.502;2023-08-21T04:47:25;5.60;;;3.25;;
13981;SDS011;7065;50.880;5.502;2023-08-21T04:49:52;3.60;;;2.90;;
13981;SDS011;7065;50.880;5.502;2023-08-21T04:52:19;4.40;;;2.80;;
13981;SDS011;7065;50.880;5.502;2023-08-21T04:54:47;3.15;;;2.85;;
13981;SDS011;7065;50.880;5.502;2023-08-21T04:57:13;3.35;;;3.05;;
13981;SDS011;7065;50.880;5.502;2023-08-21T04:59:39;4.15;;;2.85;;
13981;SDS011;7065;50.880;5.502;2023-08-21T05:02:04;5.07;;;3.33;;
13981;SDS011;7065;50.880;5.502;2023-08-21T05:04:30;5.82;;;4.28;;
13981;SDS011;7065;50.880;5.502;2023-08-21T05:06:56;9.80;;;4.60;;
13981;SDS011;7065;50.880;5.502;2023-08-21T05:09:22;6.07;;;4.18;;
13981;SDS011;7065;50.880;5.502;2023-08-21T05:11:47;4.45;;;3.25;;
13981;SDS011;7065;50.880;5.502;2023-08-21T05:14:13;4.43;;;3.03;;
13981;SDS011;7065;50.880;5.502;2023-08-21T05:16:39;4.13;;;3.42;;
13981;SDS011;7065;50.880;5.502;2023-08-21T05:19:04;3.45;;;2.95;;
13981;SDS011;7065;50.880;5.502;2023-08-21T05:21:30;4.82;;;3.13;;
13981;SDS011;7065;50.880;5.502;2023-08-21T05:23:56;5.75;;;2.92;;
13981;SDS011;7065;50.880;5.502;2023-08-21T05:26:22;3.92;;;3.10;;
13981;SDS011;7065;50.880;5.502;2023-08-21T05:28:47;7.68;;;4.07;;
13981;SDS011;7065;50.880;5.502;2023-08-21T05:31:13;7.13;;;4.47;;
13981;SDS011;7065;50.880;5.502;2023-08-21T05:33:39;4.93;;;4.15;;
13981;SDS011;7065;50.880;5.502;2023-08-21T05:36:04;5.75;;;4.30;;
13981;SDS011;7065;50.880;5.502;2023-08-21T05:38:30;5.32;;;3.85;;
13981;SDS011;7065;50.880;5.502;2023-08-21T05:40:56;5.55;;;4.07;;
13981;SDS011;7065;50.880;5.502;2023-08-21T05:43:23;8.85;;;4.22;;
13981;SDS011;7065;50.880;5.502;2023-08-21T05:45:49;5.43;;;4.55;;
13981;SDS011;7065;50.880;5.502;2023-08-21T05:48:15;7.05;;;4.35;;
13981;SDS011;7065;50.880;5.502;2023-08-21T05:50:42;4.95;;;4.30;;
13981;SDS011;7065;50.880;5.502;2023-08-21T05:53:08;8.82;;;4.90;;
13981;SDS011;7065;50.880;5.502;2023-08-21T05:55:34;7.85;;;4.75;;
13981;SDS011;7065;50.880;5.502;2023-08-21T05:58:02;6.90;;;4.68;;
13981;SDS011;7065;50.880;5.502;2023-08-21T06:00:28;9.07;;;5.35;;
13981;SDS011;7065;50.880;5.502;2023-08-21T06:02:55;11.60;;;4.80;;
13981;SDS011;7065;50.880;5.502;2023-08-21T06:05:20;8.48;;;4.90;;
13981;SDS011;7065;50.880;5.502;2023-08-21T06:07:46;8.50;;;4.65;;
13981;SDS011;7065;50.880;5.502;2023-08-21T06:10:12;9.07;;;5.10;;
13981;SDS011;7065;50.880;5.502;2023-08-21T06:12:40;7.00;;;4.53;;
13981;SDS011;7065;50.880;5.502;2023-08-21T06:15:06;7.15;;;4.20;;
13981;SDS011;7065;50.880;5.502;2023-08-21T06:17:35;6.47;;;4.43;;
13981;SDS011;7065;50.880;5.502;2023-08-21T06:20:04;8.17;;;5.07;;
13981;SDS011;7065;50.880;5.502;2023-08-21T06:22:34;6.45;;;4.13;;
13981;SDS011;7065;50.880;5.502;2023-08-21T06:25:00;9.88;;;5.13;;
13981;SDS011;7065;50.880;5.502;2023-08-21T06:27:26;8.88;;;4.28;;
13981;SDS011;7065;50.880;5.502;2023-08-21T06:29:52;10.05;;;5.43;;
13981;SDS011;7065;50.880;5.502;2023-08-21T06:32:18;5.88;;;4.25;;
13981;SDS011;7065;50.880;5.502;2023-08-21T06:34:43;8.68;;;5.03;;
13981;SDS011;7065;50.880;5.502;2023-08-21T06:37:09;9.50;;;5.07;;
13981;SDS011;7065;50.880;5.502;2023-08-21T06:39:35;8.23;;;5.10;;
13981;SDS011;7065;50.880;5.502;2023-08-21T06:42:01;8.73;;;5.10;;
13981;SDS011;7065;50.880;5.502;2023-08-21T06:44:27;6.80;;;4.65;;
13981;SDS011;7065;50.880;5.502;2023-08-21T06:46:54;9.65;;;4.97;;
13981;SDS011;7065;50.880;5.502;2023-08-21T06:49:19;8.52;;;5.55;;
13981;SDS011;7065;50.880;5.502;2023-08-21T06:51:45;9.52;;;5.30;;
13981;SDS011;7065;50.880;5.502;2023-08-21T06:54:11;9.07;;;4.90;;
13981;SDS011;7065;50.880;5.502;2023-08-21T06:56:36;7.57;;;5.07;;
13981;SDS011;7065;50.880;5.502;2023-08-21T06:59:02;7.70;;;4.28;;
13981;SDS011;7065;50.880;5.502;2023-08-21T07:01:28;8.45;;;4.22;;
13981;SDS011;7065;50.880;5.502;2023-08-21T07:03:54;6.93;;;4.18;;
13981;SDS011;7065;50.880;5.502;2023-08-21T07:06:20;9.10;;;4.63;;
13981;SDS011;7065;50.880;5.502;2023-08-21T07:08:45;8.45;;;4.88;;
13981;SDS011;7065;50.880;5.502;2023-08-21T07:11:11;8.60;;;5.05;;
13981;SDS011;7065;50.880;5.502;2023-08-21T07:13:37;8.02;;;6.25;;
13981;SDS011;7065;50.880;5.502;2023-08-21T07:16:03;9.07;;;5.22;;
13981;SDS011;7065;50.880;5.502;2023-08-21T07:18:31;6.38;;;4.88;;
13981;SDS011;7065;50.880;5.502;2023-08-21T07:20:58;6.93;;;4.93;;
13981;SDS011;7065;50.880;5.502;2023-08-21T07:23:25;10.55;;;5.60;;
13981;SDS011;7065;50.880;5.502;2023-08-21T07:25:50;8.93;;;4.90;;
13981;SDS011;7065;50.880;5.502;2023-08-21T07:28:16;9.05;;;4.90;;
13981;SDS011;7065;50.880;5.502;2023-08-21T07:30:42;9.27;;;4.65;;
13981;SDS011;7065;50.880;5.502;2023-08-21T07:33:08;10.23;;;5.15;;
13981;SDS011;7065;50.880;5.502;2023-08-21T07:35:34;9.30;;;5.07;;
13981;SDS011;7065;50.880;5.502;2023-08-21T07:38:00;6.78;;;4.68;;
13981;SDS011;7065;50.880;5.502;2023-08-21T07:40:27;7.78;;;4.90;;
13981;SDS011;7065;50.880;5.502;2023-08-21T07:42:52;7.97;;;4.32;;
13981;SDS011;7065;50.880;5.502;2023-08-21T07:45:18;6.30;;;4.20;;
13981;SDS011;7065;50.880;5.502;2023-08-21T07:47:44;9.23;;;4.55;;
13981;SDS011;7065;50.880;5.502;2023-08-21T07:50:09;7.35;;;4.55;;
13981;SDS011;7065;50.880;5.502;2023-08-21T07:52:36;7.95;;;4.97;;
13981;SDS011;7065;50.880;5.502;2023-08-21T07:55:02;8.93;;;5.47;;
13981;SDS011;7065;50.880;5.502;2023-08-21T07:57:28;9.25;;;4.47;;
13981;SDS011;7065;50.880;5.502;2023-08-21T07:59:54;6.97;;;4.65;;
13981;SDS011;7065;50.880;5.502;2023-08-21T08:02:20;9.45;;;5.05;;
13981;SDS011;7065;50.880;5.502;2023-08-21T08:04:46;6.05;;;4.20;;
13981;SDS011;7065;50.880;5.502;2023-08-21T08:07:12;8.77;;;4.35;;
13981;SDS011;7065;50.880;5.502;2023-08-21T08:09:38;9.18;;;4.38;;
13981;SDS011;7065;50.880;5.502;2023-08-21T08:12:04;8.50;;;4.28;;
13981;SDS011;7065;50.880;5.502;2023-08-21T08:14:30;7.43;;;4.45;;
13981;SDS011;7065;50.880;5.502;2023-08-21T08:16:56;5.05;;;3.50;;
13981;SDS011;7065;50.880;5.502;2023-08-21T08:19:21;11.73;;;4.30;;
13981;SDS011;7065;50.880;5.502;2023-08-21T08:21:47;5.68;;;3.90;;
13981;SDS011;7065;50.880;5.502;2023-08-21T08:24:13;6.35;;;3.83;;
13981;SDS011;7065;50.880;5.502;2023-08-21T08:26:38;9.00;;;4.43;;
13981;SDS011;7065;50.880;5.502;2023-08-21T08:29:05;8.38;;;3.72;;
13981;SDS011;7065;50.880;5.502;2023-08-21T08:31:31;6.63;;;3.65;;
13981;SDS011;7065;50.880;5.502;2023-08-21T08:33:57;7.78;;;3.60;;
13981;SDS011;7065;50.880;5.502;2023-08-21T08:36:23;7.10;;;3.22;;
13981;SDS011;7065;50.880;5.502;2023-08-21T08:38:48;6.10;;;3.13;;
13981;SDS011;7065;50.880;5.502;2023-08-21T08:44:19;6.38;;;2.75;;
13981;SDS011;7065;50.880;5.502;2023-08-21T08:46:45;6.25;;;2.83;;
13981;SDS011;7065;50.880;5.502;2023-08-21T08:49:11;6.03;;;3.00;;
13981;SDS011;7065;50.880;5.502;2023-08-21T08:51:37;6.07;;;2.85;;
13981;SDS011;7065;50.880;5.502;2023-08-21T08:54:04;7.88;;;2.95;;
13981;SDS011;7065;50.880;5.502;2023-08-21T08:56:31;7.85;;;2.90;;
13981;SDS011;7065;50.880;5.502;2023-08-21T08:58:57;8.70;;;3.70;;
13981;SDS011;7065;50.880;5.502;2023-08-21T09:01:23;6.82;;;2.90;;
13981;SDS011;7065;50.880;5.502;2023-08-21T09:03:48;5.63;;;2.72;;
13981;SDS011;7065;50.880;5.502;2023-08-21T09:06:15;5.68;;;3.00;;
13981;SDS011;7065;50.880;5.502;2023-08-21T09:08:53;5.63;;;2.90;;
13981;SDS011;7065;50.880;5.502;2023-08-21T09:11:20;8.88;;;3.42;;
13981;SDS011;7065;50.880;5.502;2023-08-21T09:13:48;5.95;;;2.85;;
13981;SDS011;7065;50.880;5.502;2023-08-21T09:16:15;5.43;;;2.80;;
13981;SDS011;7065;50.880;5.502;2023-08-21T09:18:48;4.30;;;2.72;;
13981;SDS011;7065;50.880;5.502;2023-08-21T09:21:16;6.07;;;3.08;;
13981;SDS011;7065;50.880;5.502;2023-08-21T09:23:42;4.40;;;2.95;;
13981;SDS011;7065;50.880;5.502;2023-08-21T09:26:09;11.43;;;3.45;;
13981;SDS011;7065;50.880;5.502;2023-08-21T09:28:34;7.78;;;2.60;;
13981;SDS011;7065;50.880;5.502;2023-08-21T09:31:00;6.18;;;2.03;;
13981;SDS011;7065;50.880;5.502;2023-08-21T09:33:27;7.78;;;2.60;;
13981;SDS011;7065;50.880;5.502;2023-08-21T09:35:53;6.68;;;2.30;;
13981;SDS011;7065;50.880;5.502;2023-08-21T09:38:20;6.22;;;2.20;;
13981;SDS011;7065;50.880;5.502;2023-08-21T09:40:50;5.95;;;2.00;;
13981;SDS011;7065;50.880;5.502;2023-08-21T09:43:17;3.83;;;2.05;;
13981;SDS011;7065;50.880;5.502;2023-08-21T09:45:50;4.80;;;2.38;;
13981;SDS011;7065;50.880;5.502;2023-08-21T09:48:23;4.85;;;1.95;;
13981;SDS011;7065;50.880;5.502;2023-08-21T09:50:52;5.22;;;2.20;;
13981;SDS011;7065;50.880;5.502;2023-08-21T09:53:18;10.25;;;2.78;;
13981;SDS011;7065;50.880;5.502;2023-08-21T09:55:49;5.90;;;2.38;;
13981;SDS011;7065;50.880;5.502;2023-08-21T09:58:18;6.93;;;2.42;;
13981;SDS011;7065;50.880;5.502;2023-08-21T10:00:44;5.68;;;2.20;;
13981;SDS011;7065;50.880;5.502;2023-08-21T10:03:13;4.55;;;1.80;;
13981;SDS011;7065;50.880;5.502;2023-08-21T10:05:42;4.70;;;2.50;;
13981;SDS011;7065;50.880;5.502;2023-08-21T10:08:08;3.65;;;2.00;;
13981;SDS011;7065;50.880;5.502;2023-08-21T10:10:35;6.90;;;2.70;;
13981;SDS011;7065;50.880;5.502;2023-08-21T10:13:03;6.85;;;2.38;;
13981;SDS011;7065;50.880;5.502;2023-08-21T10:15:30;5.25;;;2.15;;
13981;SDS011;7065;50.880;5.502;2023-08-21T10:17:58;5.13;;;2.45;;
13981;SDS011;7065;50.880;5.502;2023-08-21T10:20:47;5.80;;;2.63;;
13981;SDS011;7065;50.880;5.502;2023-08-21T10:23:26;5.70;;;2.53;;
13981;SDS011;7065;50.880;5.502;2023-08-21T10:25:56;4.90;;;2.58;;
13981;SDS011;7065;50.880;5.502;2023-08-21T10:33:50;10.98;;;2.70;;
13981;SDS011;7065;50.880;5.502;2023-08-21T10:36:36;7.22;;;2.53;;
13981;SDS011;7065;50.880;5.502;2023-08-21T10:42:05;7.28;;;3.00;;
13981;SDS011;7065;50.880;5.502;2023-08-21T10:49:52;5.25;;;2.60;;
13981;SDS011;7065;50.880;5.502;2023-08-21T10:54:55;6.75;;;2.70;;
13981;SDS011;7065;50.880;5.502;2023-08-21T10:57:25;4.35;;;2.53;;
13981;SDS011;7065;50.880;5.502;2023-08-21T11:00:01;6.38;;;2.40;;
13981;SDS011;7065;50.880;5.502;2023-08-21T11:02:40;4.80;;;2.28;;
13981;SDS011;7065;50.880;5.502;2023-08-21T11:05:08;8.38;;;2.53;;
13981;SDS011;7065;50.880;5.502;2023-08-21T11:07:44;5.75;;;2.25;;
13981;SDS011;7065;50.880;5.502;2023-08-21T11:10:15;6.43;;;2.70;;
13981;SDS011;7065;50.880;5.502;2023-08-21T11:12:52;6.03;;;2.30;;
13981;SDS011;7065;50.880;5.502;2023-08-21T11:15:20;6.20;;;2.45;;
13981;SDS011;7065;50.880;5.502;2023-08-21T11:17:56;4.10;;;2.00;;
13981;SDS011;7065;50.880;5.502;2023-08-21T11:20:27;6.70;;;2.70;;
13981;SDS011;7065;50.880;5.502;2023-08-21T11:22:57;5.60;;;2.35;;
13981;SDS011;7065;50.880;5.502;2023-08-21T11:25:38;4.85;;;1.88;;
13981;SDS011;7065;50.880;5.502;2023-08-21T11:28:05;5.25;;;2.03;;
13981;SDS011;7065;50.880;5.502;2023-08-21T11:30:31;4.43;;;1.88;;
13981;SDS011;7065;50.880;5.502;2023-08-21T11:35:31;8.57;;;2.42;;
13981;SDS011;7065;50.880;5.502;2023-08-21T11:37:57;4.60;;;1.85;;
13981;SDS011;7065;50.880;5.502;2023-08-21T11:40:23;4.43;;;2.10;;
13981;SDS011;7065;50.880;5.502;2023-08-21T11:42:51;3.92;;;1.70;;
13981;SDS011;7065;50.880;5.502;2023-08-21T11:45:19;7.28;;;2.88;;
13981;SDS011;7065;50.880;5.502;2023-08-21T11:47:46;7.55;;;2.50;;
13981;SDS011;7065;50.880;5.502;2023-08-21T11:50:12;4.05;;;1.77;;
13981;SDS011;7065;50.880;5.502;2023-08-21T11:52:43;4.18;;;1.83;;
13981;SDS011;7065;50.880;5.502;2023-08-21T11:55:09;3.97;;;1.52;;
13981;SDS011;7065;50.880;5.502;2023-08-21T11:57:50;6.53;;;2.10;;
13981;SDS011;7065;50.880;5.502;2023-08-21T12:00:17;3.05;;;1.75;;
13981;SDS011;7065;50.880;5.502;2023-08-21T12:02:53;3.78;;;1.95;;
13981;SDS011;7065;50.880;5.502;2023-08-21T12:05:25;3.53;;;1.80;;
13981;SDS011;7065;50.880;5.502;2023-08-21T12:07:52;6.32;;;1.80;;
13981;SDS011;7065;50.880;5.502;2023-08-21T12:10:28;5.65;;;2.13;;
13981;SDS011;7065;50.880;5.502;2023-08-21T12:12:55;5.88;;;1.90;;
13981;SDS011;7065;50.880;5.502;2023-08-21T12:15:23;4.25;;;1.65;;
13981;SDS011;7065;50.880;5.502;2023-08-21T12:17:49;3.95;;;1.60;;
13981;SDS011;7065;50.880;5.502;2023-08-21T12:20:16;4.82;;;1.65;;
13981;SDS011;7065;50.880;5.502;2023-08-21T12:22:42;3.53;;;2.05;;
13981;SDS011;7065;50.880;5.502;2023-08-21T12:25:08;4.60;;;2.10;;
13981;SDS011;7065;50.880;5.502;2023-08-21T12:27:35;2.90;;;1.90;;
13981;SDS011;7065;50.880;5.502;2023-08-21T12:30:01;4.38;;;1.95;;
13981;SDS011;7065;50.880;5.502;2023-08-21T12:32:27;5.03;;;1.52;;
13981;SDS011;7065;50.880;5.502;2023-08-21T12:34:53;3.75;;;1.50;;
13981;SDS011;7065;50.880;5.502;2023-08-21T12:37:18;5.65;;;2.17;;
13981;SDS011;7065;50.880;5.502;2023-08-21T12:39:44;5.60;;;2.05;;
13981;SDS011;7065;50.880;5.502;2023-08-21T12:42:10;4.50;;;2.00;;
13981;SDS011;7065;50.880;5.502;2023-08-21T12:44:36;3.92;;;1.85;;
13981;SDS011;7065;50.880;5.502;2023-08-21T12:47:02;3.13;;;1.83;;
13981;SDS011;7065;50.880;5.502;2023-08-21T12:49:28;4.60;;;1.88;;
13981;SDS011;7065;50.880;5.502;2023-08-21T12:51:53;3.65;;;1.77;;
13981;SDS011;7065;50.880;5.502;2023-08-21T12:54:20;5.78;;;2.05;;
13981;SDS011;7065;50.880;5.502;2023-08-21T12:56:46;3.75;;;1.77;;
13981;SDS011;7065;50.880;5.502;2023-08-21T12:59:12;4.18;;;1.90;;
13981;SDS011;7065;50.880;5.502;2023-08-21T13:01:38;3.83;;;2.08;;
13981;SDS011;7065;50.880;5.502;2023-08-21T13:04:04;4.03;;;1.90;;
13981;SDS011;7065;50.880;5.502;2023-08-21T13:06:30;7.07;;;1.90;;
13981;SDS011;7065;50.880;5.502;2023-08-21T13:08:55;4.10;;;1.75;;
13981;SDS011;7065;50.880;5.502;2023-08-21T13:11:21;5.07;;;1.80;;
13981;SDS011;7065;50.880;5.502;2023-08-21T13:13:47;4.72;;;1.77;;
13981;SDS011;7065;50.880;5.502;2023-08-21T13:16:13;4.00;;;2.05;;
13981;SDS011;7065;50.880;5.502;2023-08-21T13:18:39;5.55;;;1.70;;
13981;SDS011;7065;50.880;5.502;2023-08-21T13:21:05;2.67;;;1.40;;
13981;SDS011;7065;50.880;5.502;2023-08-21T13:23:31;3.75;;;1.95;;
13981;SDS011;7065;50.880;5.502;2023-08-21T13:25:59;4.72;;;2.22;;
13981;SDS011;7065;50.880;5.502;2023-08-21T13:28:25;3.75;;;1.80;;
13981;SDS011;7065;50.880;5.502;2023-08-21T13:30:50;3.58;;;1.80;;
13981;SDS011;7065;50.880;5.502;2023-08-21T13:33:17;4.78;;;1.83;;
13981;SDS011;7065;50.880;5.502;2023-08-21T13:35:44;3.30;;;1.60;;
13981;SDS011;7065;50.880;5.502;2023-08-21T13:38:10;3.78;;;1.60;;
13981;SDS011;7065;50.880;5.502;2023-08-21T13:40:39;4.32;;;2.00;;
13981;SDS011;7065;50.880;5.502;2023-08-21T13:43:08;3.65;;;1.70;;
13981;SDS011;7065;50.880;5.502;2023-08-21T13:45:35;4.55;;;1.80;;
13981;SDS011;7065;50.880;5.502;2023-08-21T13:48:01;3.38;;;1.90;;
13981;SDS011;7065;50.880;5.502;2023-08-21T13:50:29;3.70;;;1.67;;
13981;SDS011;7065;50.880;5.502;2023-08-21T13:52:55;4.30;;;1.70;;
13981;SDS011;7065;50.880;5.502;2023-08-21T13:55:21;2.95;;;1.40;;
13981;SDS011;7065;50.880;5.502;2023-08-21T13:57:48;4.03;;;1.80;;
13981;SDS011;7065;50.880;5.502;2023-08-21T14:00:14;3.08;;;1.90;;
13981;SDS011;7065;50.880;5.502;2023-08-21T14:02:42;3.53;;;1.98;;
13981;SDS011;7065;50.880;5.502;2023-08-21T14:05:09;4.10;;;1.55;;
13981;SDS011;7065;50.880;5.502;2023-08-21T14:07:35;3.70;;;2.03;;
13981;SDS011;7065;50.880;5.502;2023-08-21T14:10:02;3.10;;;1.60;;
13981;SDS011;7065;50.880;5.502;2023-08-21T14:12:30;3.60;;;1.65;;
13981;SDS011;7065;50.880;5.502;2023-08-21T14:14:56;2.97;;;1.50;;
13981;SDS011;7065;50.880;5.502;2023-08-21T14:17:23;3.17;;;1.30;;
13981;SDS011;7065;50.880;5.502;2023-08-21T14:19:49;4.38;;;1.85;;
13981;SDS011;7065;50.880;5.502;2023-08-21T14:22:15;2.65;;;1.40;;
13981;SDS011;7065;50.880;5.502;2023-08-21T14:24:40;2.47;;;1.45;;
13981;SDS011;7065;50.880;5.502;2023-08-21T14:27:06;5.93;;;2.03;;
13981;SDS011;7065;50.880;5.502;2023-08-21T14:29:32;3.67;;;1.73;;
13981;SDS011;7065;50.880;5.502;2023-08-21T14:31:58;3.05;;;1.65;;
13981;SDS011;7065;50.880;5.502;2023-08-21T14:34:25;3.92;;;1.73;;
13981;SDS011;7065;50.880;5.502;2023-08-21T14:36:52;4.80;;;1.58;;
13981;SDS011;7065;50.880;5.502;2023-08-21T14:39:19;3.85;;;1.58;;
13981;SDS011;7065;50.880;5.502;2023-08-21T14:41:45;4.13;;;1.50;;
13981;SDS011;7065;50.880;5.502;2023-08-21T14:44:12;3.15;;;1.45;;
13981;SDS011;7065;50.880;5.502;2023-08-21T14:46:37;3.22;;;1.52;;
13981;SDS011;7065;50.880;5.502;2023-08-21T14:49:03;3.00;;;1.50;;
13981;SDS011;7065;50.880;5.502;2023-08-21T14:51:29;4.13;;;1.70;;
13981;SDS011;7065;50.880;5.502;2023-08-21T14:53:54;3.70;;;1.90;;
13981;SDS011;7065;50.880;5.502;2023-08-21T14:56:20;3.22;;;1.70;;
13981;SDS011;7065;50.880;5.502;2023-08-21T14:58:46;4.03;;;1.90;;
13981;SDS011;7065;50.880;5.502;2023-08-21T15:01:12;4.38;;;1.70;;
13981;SDS011;7065;50.880;5.502;2023-08-21T15:03:39;2.80;;;1.77;;
13981;SDS011;7065;50.880;5.502;2023-08-21T15:06:05;7.03;;;1.75;;
13981;SDS011;7065;50.880;5.502;2023-08-21T15:08:32;2.97;;;1.65;;
13981;SDS011;7065;50.880;5.502;2023-08-21T15:10:58;3.75;;;1.85;;
13981;SDS011;7065;50.880;5.502;2023-08-21T15:13:23;3.80;;;1.88;;
13981;SDS011;7065;50.880;5.502;2023-08-21T15:15:49;3.80;;;1.55;;
13981;SDS011;7065;50.880;5.502;2023-08-21T15:18:15;3.35;;;1.55;;
13981;SDS011;7065;50.880;5.502;2023-08-21T15:20:40;3.58;;;1.67;;
13981;SDS011;7065;50.880;5.502;2023-08-21T15:23:07;3.15;;;1.50;;